Weather History for KMWM - June, 2013

Change the Weather History Date:

Sunday, June 30, 2013

  Actual Average Record
Temperature  
Mean Temperature 66 °F -  
Max Temperature 78 °F 81 °F 98 °F (1949)
Min Temperature 53 °F 59 °F 35 °F (2001)
Growing Degree Days 16 (Base 50)    
Moisture  
Dew Point 50 °F    
Average Humidity 60    
Maximum Humidity 94    
Minimum Humidity 29    
Precipitation  
Precipitation 0.00 in - - ()
Sea Level Pressure  
Sea Level Pressure 30.11 in    
Wind  
Wind Speed 7 mph (North)    
Max Wind Speed 16 mph    
Max Gust Speed 21 mph    
Visibility 10 miles    
Events      
Averages and records for this station are not official NWS values.
T = Trace of Precipitation, MM = Missing Value Source: NWS Daily Summary

Daily Weather History Graph

Daily Weather History Graph

Search for Another Location

Airport or City:

Trip Planner

Search our weather history database for the weather conditions in past years. The results will help you decide how hot, cold, wet, or windy it might be!

Date:

Astronomy

Jun. 30, 2013 Rise Set
Actual Time 5:41 AM CDT 9:06 PM CDT
Civil Twilight 5:05 AM CDT 9:42 PM CDT
Nautical Twilight 4:18 AM CDT 10:29 PM CDT
Astronomical Twilight 3:18 AM CDT 11:29 PM CDT
Moon 12:50 AM CDT (6/30) 2:13 PM CDT (6/30)
Length of Visible Light 16h 37m
Length of Day
15h 25m
Last Quarter, 45% of the Moon is Illuminated
Jun 30
Last Quarter
Jul 8
New
Jul 15
First Quarter
Jul 22
Full
Jul 29
Last Quarter

Hourly Weather History & Observations

Time (CDT) Temp. Dew Point Humidity Pressure Visibility Wind Dir Wind Speed Gust Speed Precip Events Conditions
12:12 AM 60.8 °F 53.6 °F 77% 30.01 in 10.0 mi North 4.6 mph - N/A   Clear
12:32 AM 59.0 °F 53.6 °F 82% 30.01 in 10.0 mi North 4.6 mph - N/A   Clear
12:53 AM 57.2 °F 53.6 °F 88% 30.02 in 10.0 mi North 3.5 mph - N/A   Clear
1:12 AM 57.2 °F 53.6 °F 88% 30.02 in 10.0 mi North 4.6 mph - N/A   Clear
1:32 AM 57.2 °F 53.6 °F 88% 30.03 in 10.0 mi North 5.8 mph - N/A   Clear
1:51 AM 57.2 °F 53.6 °F 88% 30.03 in 10.0 mi NNW 4.6 mph - N/A   Clear
2:12 AM 55.4 °F 53.6 °F 94% 30.04 in 10.0 mi NNW 5.8 mph - N/A   Clear
2:32 AM 55.4 °F 51.8 °F 88% 30.05 in 10.0 mi North 5.8 mph - N/A   Clear
2:53 AM 55.4 °F 51.8 °F 88% 30.05 in 10.0 mi North 6.9 mph - N/A   Clear
3:12 AM 55.4 °F 51.8 °F 88% 30.06 in 10.0 mi North 6.9 mph - N/A   Clear
3:29 AM 55.4 °F 51.8 °F 88% 30.06 in 10.0 mi North 5.8 mph - N/A   Clear
3:53 AM 55.4 °F 51.8 °F 88% 30.06 in 10.0 mi North 6.9 mph - N/A   Clear
4:12 AM 55.4 °F 51.8 °F 88% 30.06 in 10.0 mi North 5.8 mph - N/A   Clear
4:32 AM 55.4 °F 51.8 °F 88% 30.06 in 10.0 mi North 6.9 mph - N/A   Clear
4:53 AM 55.4 °F 51.8 °F 88% 30.07 in 10.0 mi North 6.9 mph - N/A   Clear
5:13 AM 55.4 °F 51.8 °F 88% 30.06 in 10.0 mi North 5.8 mph - N/A   Clear
5:32 AM 55.4 °F 51.8 °F 88% 30.07 in 10.0 mi North 4.6 mph - N/A   Clear
5:53 AM 53.6 °F 51.8 °F 94% 30.08 in 10.0 mi North 5.8 mph - N/A   Clear
6:13 AM 55.4 °F 51.8 °F 88% 30.08 in 10.0 mi North 5.8 mph - N/A   Clear
6:30 AM 55.4 °F 51.8 °F 88% 30.09 in 10.0 mi North 4.6 mph - N/A   Clear
6:53 AM 55.4 °F 51.8 °F 88% 30.09 in 10.0 mi North 5.8 mph - N/A   Clear
7:13 AM 57.2 °F 53.6 °F 88% 30.10 in 10.0 mi North 5.8 mph - N/A   Clear
7:32 AM 57.2 °F 53.6 °F 88% 30.10 in 10.0 mi North 4.6 mph - N/A   Clear
7:53 AM 59.0 °F 53.6 °F 82% 30.11 in 10.0 mi North 3.5 mph - N/A   Clear
8:12 AM 60.8 °F 53.6 °F 77% 30.12 in 10.0 mi North 6.9 mph - N/A   Clear
8:32 AM 64.4 °F 51.8 °F 64% 30.12 in - North 9.2 mph - N/A   Clear
8:53 AM 64.4 °F 51.8 °F 64% 30.13 in 10.0 mi North 10.4 mph - N/A   Clear
9:12 AM 64.4 °F 51.8 °F 64% 30.13 in 10.0 mi NNE 10.4 mph - N/A   Clear
9:32 AM 64.4 °F 50.0 °F 59% 30.13 in 10.0 mi North 9.2 mph - N/A   Clear
9:53 AM 66.2 °F 50.0 °F 56% 30.14 in 10.0 mi North 6.9 mph - N/A   Clear
10:12 AM 66.2 °F 48.2 °F 52% 30.14 in 10.0 mi NNE 6.9 mph - N/A   Clear
10:32 AM 68.0 °F 46.4 °F 46% 30.13 in 10.0 mi NNE 6.9 mph - N/A   Clear
10:53 AM 69.8 °F 48.2 °F 46% 30.13 in 10.0 mi NNE 4.6 mph - N/A   Clear
11:12 AM 71.6 °F 48.2 °F 43% 30.13 in 10.0 mi NNE 8.1 mph - N/A   Clear
11:32 AM 71.6 °F 48.2 °F 43% 30.13 in 10.0 mi NE 11.5 mph - N/A   Clear
11:52 AM 71.6 °F 48.2 °F 43% 30.13 in 10.0 mi NNE 10.4 mph - N/A   Clear
12:12 PM 73.4 °F 46.4 °F 38% 30.14 in 10.0 mi NNE 11.5 mph 17.3 mph N/A   Clear
12:33 PM 73.4 °F 46.4 °F 38% 30.14 in 10.0 mi NE 10.4 mph - N/A   Clear
12:52 PM 73.4 °F 46.4 °F 38% 30.14 in 10.0 mi North 8.1 mph 17.3 mph N/A   Clear
1:12 PM 75.2 °F 48.2 °F 38% 30.14 in 10.0 mi North 11.5 mph - N/A   Clear
1:33 PM 75.2 °F 48.2 °F 38% 30.13 in 10.0 mi North 11.5 mph 17.3 mph N/A   Clear
1:52 PM 75.2 °F 48.2 °F 38% 30.13 in 10.0 mi North 15.0 mph 20.7 mph N/A   Clear
2:12 PM 75.2 °F 48.2 °F 38% 30.13 in 10.0 mi North 13.8 mph - N/A   Scattered Clouds
2:33 PM 77.0 °F 46.4 °F 34% 30.13 in 10.0 mi North 16.1 mph 19.6 mph N/A   Scattered Clouds
2:52 PM 77.0 °F 42.8 °F 29% 30.13 in 10.0 mi NNE 10.4 mph 19.6 mph N/A   Clear
3:12 PM 77.0 °F 42.8 °F 29% 30.13 in 10.0 mi NE 11.5 mph 19.6 mph N/A   Clear
3:33 PM 77.0 °F 44.6 °F 32% 30.13 in 10.0 mi NNE 10.4 mph 16.1 mph N/A   Clear
3:52 PM 77.0 °F 42.8 °F 29% 30.12 in 10.0 mi North 8.1 mph - N/A   Clear
4:12 PM 78.8 °F 46.4 °F 32% 30.12 in 10.0 mi North 6.9 mph 16.1 mph N/A   Clear
4:33 PM 78.8 °F 44.6 °F 30% 30.12 in 10.0 mi NNE 13.8 mph 18.4 mph N/A   Clear
4:52 PM 78.8 °F 44.6 °F 30% 30.12 in 10.0 mi ENE 11.5 mph - N/A   Clear
5:12 PM 78.8 °F 44.6 °F 30% 30.12 in 10.0 mi NNE 9.2 mph - N/A   Clear
5:33 PM 78.8 °F 44.6 °F 30% 30.12 in 10.0 mi NNE 5.8 mph - N/A   Clear
5:52 PM 77.0 °F 44.6 °F 32% 30.12 in 10.0 mi NNE 12.7 mph 17.3 mph N/A   Clear
6:12 PM 77.0 °F 44.6 °F 32% 30.12 in 10.0 mi NE 10.4 mph - N/A   Clear
6:33 PM 75.2 °F 46.4 °F 36% 30.12 in 10.0 mi NE 13.8 mph 18.4 mph N/A   Clear
6:52 PM 75.2 °F 48.2 °F 38% 30.12 in 10.0 mi NNE 10.4 mph - N/A   Clear
7:12 PM 75.2 °F 48.2 °F 38% 30.12 in 10.0 mi NNE 11.5 mph - N/A   Clear
7:33 PM 75.2 °F 48.2 °F 38% 30.12 in 10.0 mi NNE 10.4 mph - N/A   Clear
7:53 PM 73.4 °F 48.2 °F 41% 30.12 in 10.0 mi NNE 8.1 mph - N/A   Clear
8:12 PM 73.4 °F 51.8 °F 47% 30.12 in 10.0 mi NNE 4.6 mph - N/A   Clear
8:33 PM 71.6 °F 51.8 °F 50% 30.12 in 10.0 mi NNE 5.8 mph - N/A   Clear
8:53 PM 69.8 °F 53.6 °F 56% 30.13 in 7.0 mi Calm Calm - N/A   Clear
9:12 PM 68.0 °F 53.6 °F 60% 30.13 in 10.0 mi NNE 3.5 mph - N/A   Clear
9:33 PM 64.4 °F 51.8 °F 64% 30.14 in 10.0 mi Calm Calm - N/A   Clear
9:53 PM 64.4 °F 51.8 °F 64% 30.14 in 10.0 mi Calm Calm - N/A   Clear
10:12 PM 64.4 °F 53.6 °F 68% 30.15 in 10.0 mi Calm Calm - N/A   Clear
10:33 PM 64.4 °F 53.6 °F 68% 30.15 in 10.0 mi Calm Calm - N/A   Clear
10:53 PM 62.6 °F 53.6 °F 72% 30.16 in 10.0 mi NNW 5.8 mph - N/A   Clear
11:12 PM 62.6 °F 53.6 °F 72% 30.16 in 10.0 mi Calm Calm - N/A   Clear
11:33 PM 62.6 °F 53.6 °F 72% 30.16 in 10.0 mi Calm Calm - N/A   Clear
11:52 PM 62.6 °F 53.6 °F 72% 30.16 in 10.0 mi Calm Calm - N/A   Clear